createdAt,value
2018-03-12T00:00:45.325Z,17.53
2018-03-12T00:03:11.289Z,18.83
2018-03-12T00:05:37.292Z,19.40
2018-03-12T00:08:03.247Z,18.27
2018-03-12T00:10:29.211Z,19.53
2018-03-12T00:12:55.927Z,19.23
2018-03-12T00:15:21.954Z,17.67
2018-03-12T00:17:47.942Z,17.43
2018-03-12T00:20:14.679Z,17.83
2018-03-12T00:22:40.659Z,16.80
2018-03-12T00:25:06.627Z,17.00
2018-03-12T00:27:32.624Z,17.87
2018-03-12T00:29:58.584Z,18.27
2018-03-12T00:32:24.528Z,18.27
2018-03-12T00:34:50.515Z,18.43
2018-03-12T00:37:16.489Z,18.13
2018-03-12T00:39:42.472Z,19.83
2018-03-12T00:42:09.157Z,19.00
2018-03-12T00:44:35.133Z,18.50
2018-03-12T00:47:01.086Z,19.47
2018-03-12T00:49:27.048Z,18.43
2018-03-12T00:51:53.019Z,18.63
2018-03-12T00:54:18.964Z,18.77
2018-03-12T00:56:44.936Z,18.63
2018-03-12T00:59:11.629Z,17.47
2018-03-12T01:01:37.616Z,18.03
2018-03-12T01:04:03.584Z,18.23
2018-03-12T01:06:29.556Z,18.20
2018-03-12T01:11:51.008Z,18.93
2018-03-12T01:14:16.987Z,17.73
2018-03-12T01:16:43.672Z,19.13
2018-03-12T01:19:09.648Z,17.97
2018-03-12T01:21:35.599Z,21.13
2018-03-12T01:24:01.581Z,17.30
2018-03-12T01:26:27.562Z,17.43
2018-03-12T01:28:53.600Z,18.13
2018-03-12T01:31:19.564Z,16.93
2018-03-12T01:33:46.316Z,17.97
2018-03-12T01:36:13.015Z,16.80
2018-03-12T01:38:38.969Z,18.53
2018-03-12T01:41:04.936Z,18.93
2018-03-12T01:43:31.616Z,18.80
2018-03-12T01:45:57.604Z,17.77
2018-03-12T01:48:23.564Z,19.73
2018-03-12T01:50:50.280Z,19.37
2018-03-12T01:53:16.223Z,17.57
2018-03-12T01:55:42.198Z,17.97
2018-03-12T01:58:09.005Z,18.70
2018-03-12T02:00:35.668Z,18.23
2018-03-12T02:03:01.660Z,19.57
2018-03-12T02:05:27.695Z,18.53
2018-03-12T02:07:53.685Z,19.47
2018-03-12T02:10:19.715Z,19.60
2018-03-12T02:12:45.648Z,18.10
2018-03-12T02:15:11.588Z,18.17
2018-03-12T02:17:37.581Z,17.67
2018-03-12T02:20:03.538Z,18.43
2018-03-12T02:22:29.496Z,19.03
2018-03-12T02:24:55.512Z,19.40
2018-03-12T02:27:21.501Z,16.73
2018-03-12T02:29:47.476Z,16.83
2018-03-12T02:32:13.439Z,17.70
2018-03-12T02:34:39.409Z,17.47
2018-03-12T02:37:05.356Z,17.17
2018-03-12T02:39:31.324Z,16.37
2018-03-12T02:41:57.381Z,17.30
2018-03-12T02:44:23.386Z,16.63
2018-03-12T02:46:49.337Z,18.07
2018-03-12T02:49:15.290Z,15.97
2018-03-12T02:51:41.256Z,19.37
2018-03-12T02:54:07.204Z,18.07
2018-03-12T02:56:33.168Z,16.50
2018-03-12T02:58:59.121Z,16.73
2018-03-12T03:01:25.114Z,17.83
2018-03-12T03:03:51.114Z,17.13
2018-03-12T03:06:17.833Z,19.60
2018-03-12T03:08:43.823Z,20.33
2018-03-12T03:11:10.518Z,18.07
2018-03-12T03:13:36.519Z,24.57
2018-03-12T03:16:02.493Z,16.70
2018-03-12T03:18:28.526Z,16.50
2018-03-12T03:20:54.533Z,17.93
2018-03-12T03:23:20.565Z,17.43
2018-03-12T03:25:46.533Z,18.10
2018-03-12T03:28:12.527Z,17.50
2018-03-12T03:30:39.230Z,19.27
2018-03-12T03:33:05.213Z,22.00
2018-03-12T03:35:31.916Z,19.07
2018-03-12T03:37:57.901Z,19.73
2018-03-12T03:40:24.631Z,18.20
2018-03-12T03:42:50.629Z,18.47
2018-03-12T03:45:16.617Z,18.70
2018-03-12T03:47:42.618Z,16.73
2018-03-12T03:50:08.613Z,15.90
2018-03-12T03:52:34.605Z,17.67
2018-03-12T03:55:00.589Z,18.80
2018-03-12T03:57:26.590Z,19.93
2018-03-12T03:59:52.654Z,17.23
2018-03-12T04:02:18.633Z,16.50
2018-03-12T04:04:44.641Z,18.13
2018-03-12T04:07:10.611Z,27.27
2018-03-12T04:09:36.579Z,25.43
2018-03-12T04:12:02.569Z,27.83
2018-03-12T04:14:28.561Z,38.47
2018-03-12T04:16:55.330Z,35.87
2018-03-12T04:19:21.301Z,27.87
2018-03-12T04:21:47.281Z,26.17
2018-03-12T04:24:13.994Z,25.33
2018-03-12T04:26:40.030Z,18.37
2018-03-12T04:29:12.094Z,18.53
2018-03-12T04:31:38.102Z,19.77
2018-03-12T04:34:04.076Z,18.90
2018-03-12T04:36:30.061Z,20.57
2018-03-12T04:38:56.853Z,21.20
2018-03-12T04:41:22.853Z,22.33
2018-03-12T04:43:49.977Z,21.93
2018-03-12T04:46:15.957Z,21.20
2018-03-12T04:48:42.673Z,22.17
2018-03-12T04:51:08.666Z,21.30
2018-03-12T04:53:34.633Z,18.97
2018-03-12T04:56:00.622Z,19.27
2018-03-12T04:58:27.337Z,21.60
2018-03-12T05:00:53.428Z,19.70
2018-03-12T05:03:19.414Z,20.50
2018-03-12T05:05:45.426Z,21.30
2018-03-12T05:08:11.401Z,22.03
2018-03-12T05:10:37.410Z,23.30
2018-03-12T05:13:03.394Z,22.87
2018-03-12T05:15:30.126Z,19.47
2018-03-12T05:17:56.159Z,19.53
2018-03-12T05:20:22.275Z,18.50
2018-03-12T05:22:48.217Z,18.93
2018-03-12T05:25:14.255Z,18.00
2018-03-12T05:27:40.216Z,19.93
2018-03-12T05:30:06.404Z,19.53
2018-03-12T05:32:32.464Z,17.07
2018-03-12T05:34:58.462Z,18.20
2018-03-12T05:37:24.559Z,19.00
2018-03-12T05:39:51.338Z,21.50
2018-03-12T05:42:18.090Z,21.27
2018-03-12T05:44:44.838Z,19.80
2018-03-12T05:47:10.799Z,24.50
2018-03-12T05:49:37.563Z,20.57
2018-03-12T05:52:03.570Z,20.83
2018-03-12T05:54:30.269Z,21.40
2018-03-12T05:56:56.354Z,20.40
2018-03-12T05:59:22.326Z,19.60
2018-03-12T06:01:48.314Z,20.47
2018-03-12T06:04:15.065Z,22.57
2018-03-12T06:06:41.093Z,21.53
2018-03-12T06:09:07.065Z,20.47
2018-03-12T06:11:33.790Z,23.57
2018-03-12T06:13:59.808Z,25.27
2018-03-12T06:16:25.818Z,24.63
2018-03-12T06:18:51.833Z,26.30
2018-03-12T06:21:18.558Z,28.70
2018-03-12T06:23:44.561Z,26.33
2018-03-12T06:26:10.535Z,33.83
2018-03-12T06:28:36.494Z,27.27
2018-03-12T06:31:03.238Z,25.03
2018-03-12T06:33:29.939Z,27.90
2018-03-12T06:35:55.964Z,24.73
2018-03-12T06:38:22.070Z,25.33
2018-03-12T06:40:48.805Z,26.47
2018-03-12T06:43:14.879Z,26.97
2018-03-12T06:45:40.913Z,30.07
2018-03-12T06:48:06.886Z,29.33
2018-03-12T06:50:32.912Z,27.80
2018-03-12T06:52:58.903Z,28.37
2018-03-12T06:55:25.716Z,26.63
2018-03-12T06:57:51.685Z,30.87
2018-03-12T07:00:18.445Z,34.07
2018-03-12T07:02:44.426Z,37.23
2018-03-12T07:05:10.416Z,33.10
2018-03-12T07:07:37.131Z,33.23
2018-03-12T07:10:03.126Z,37.50
2018-03-12T07:12:29.129Z,34.10
2018-03-12T07:14:55.206Z,30.97
2018-03-12T07:17:21.274Z,35.40
2018-03-12T07:19:47.277Z,36.70
2018-03-12T07:22:13.277Z,38.00
2018-03-12T07:24:39.265Z,37.97
2018-03-12T07:27:05.265Z,44.20
2018-03-12T07:29:32.005Z,36.80
2018-03-12T07:31:57.975Z,38.67
2018-03-12T07:34:24.028Z,30.33
2018-03-12T07:36:50.037Z,33.90
2018-03-12T07:39:16.743Z,31.73
2018-03-12T07:41:42.755Z,31.30
2018-03-12T07:44:08.774Z,32.40
2018-03-12T07:46:34.762Z,33.07
2018-03-12T07:49:00.773Z,36.20
2018-03-12T07:51:26.777Z,35.67
2018-03-12T07:53:53.535Z,34.80
2018-03-12T07:56:19.513Z,34.03
2018-03-12T07:58:45.500Z,34.50
2018-03-12T08:01:12.236Z,32.63
2018-03-12T08:03:38.225Z,39.63
2018-03-12T08:06:04.250Z,35.43
2018-03-12T08:08:30.214Z,32.27
2018-03-12T08:10:56.227Z,35.77
2018-03-12T08:13:22.202Z,35.00
2018-03-12T08:15:48.820Z,36.07
2018-03-12T08:18:14.841Z,39.83
2018-03-12T08:20:41.586Z,32.40
2018-03-12T08:23:07.552Z,33.47
2018-03-12T08:25:33.586Z,35.37
2018-03-12T08:27:59.557Z,34.03
2018-03-12T08:30:26.324Z,33.27
2018-03-12T08:32:52.491Z,30.80
2018-03-12T08:35:18.515Z,31.13
2018-03-12T08:37:45.235Z,33.60
2018-03-12T08:40:11.215Z,31.80
2018-03-12T08:42:37.207Z,32.50
2018-03-12T08:45:03.182Z,31.57
2018-03-12T08:47:29.176Z,31.03
2018-03-12T08:49:55.176Z,32.17
2018-03-12T08:52:21.206Z,31.03
2018-03-12T08:54:47.178Z,32.47
2018-03-12T08:57:13.245Z,31.67
2018-03-12T08:59:39.203Z,30.87
2018-03-12T09:02:05.209Z,31.03
2018-03-12T09:04:38.193Z,30.63
2018-03-12T09:07:04.193Z,34.77
2018-03-12T09:09:30.210Z,31.10
2018-03-12T09:11:56.942Z,31.73
2018-03-12T09:14:23.747Z,29.20
2018-03-12T09:16:49.705Z,28.80
2018-03-12T09:19:16.489Z,30.33
2018-03-12T09:21:42.455Z,30.73
2018-03-12T09:24:08.425Z,31.83
2018-03-12T09:26:34.426Z,34.60
2018-03-12T09:29:00.405Z,34.80
2018-03-12T09:31:26.455Z,33.43
2018-03-12T09:33:53.204Z,31.67
2018-03-12T09:36:19.190Z,34.50
2018-03-12T09:38:45.193Z,33.50
2018-03-12T09:41:11.190Z,31.20
2018-03-12T09:43:37.165Z,34.60
2018-03-12T09:46:03.147Z,30.30
2018-03-12T09:48:29.126Z,31.43
2018-03-12T09:50:55.141Z,29.30
2018-03-12T09:53:21.122Z,28.00
2018-03-12T09:55:47.851Z,31.53
2018-03-12T09:58:13.797Z,29.63
2018-03-12T10:00:39.782Z,30.80
2018-03-12T10:03:05.741Z,30.07
2018-03-12T10:05:31.749Z,27.27
2018-03-12T10:07:57.719Z,26.50
2018-03-12T10:10:30.694Z,30.20
2018-03-12T10:12:56.684Z,30.57
2018-03-12T10:15:23.449Z,28.77
2018-03-12T10:17:50.146Z,26.30
2018-03-12T10:20:16.110Z,26.40
2018-03-12T10:22:42.096Z,29.40
2018-03-12T10:25:08.045Z,28.13
2018-03-12T10:27:34.068Z,29.97
2018-03-12T10:30:00.077Z,30.40
2018-03-12T10:32:26.789Z,29.10
2018-03-12T10:34:52.746Z,28.70
2018-03-12T10:37:20.306Z,34.77
2018-03-12T10:39:46.264Z,32.27
2018-03-12T10:42:12.231Z,31.10
2018-03-12T10:44:38.227Z,21.10
2018-03-12T10:47:04.218Z,28.03
2018-03-12T10:49:30.243Z,29.50
2018-03-12T10:51:56.202Z,22.23
2018-03-12T10:54:22.259Z,19.90
2018-03-12T10:56:48.239Z,22.53
2018-03-12T10:59:14.986Z,10.57
2018-03-12T11:01:45.503Z,13.03
2018-03-12T11:04:11.468Z,9.80
2018-03-12T11:06:41.016Z,6.60
2018-03-12T11:09:06.989Z,5.80
2018-03-12T11:11:32.990Z,7.30
2018-03-12T11:13:59.049Z,7.87
2018-03-12T11:16:25.090Z,7.20
2018-03-12T11:18:51.102Z,6.70
2018-03-12T11:21:17.089Z,5.50
2018-03-12T11:23:43.100Z,6.20
2018-03-12T11:26:09.109Z,6.80
2018-03-12T11:28:35.063Z,6.33
2018-03-12T11:31:01.020Z,8.70
2018-03-12T11:33:27.014Z,8.10
2018-03-12T11:35:52.994Z,7.77
2018-03-12T11:38:19.001Z,9.53
2018-03-12T11:40:45.022Z,8.90
2018-03-12T11:43:10.977Z,7.83
2018-03-12T11:45:36.971Z,9.97
2018-03-12T11:48:03.694Z,8.60
2018-03-12T11:50:29.646Z,8.33
2018-03-12T11:52:55.638Z,6.97
2018-03-12T11:55:21.679Z,8.00
2018-03-12T11:57:47.673Z,12.60
2018-03-12T12:00:14.392Z,8.97
2018-03-12T12:02:40.366Z,6.90
2018-03-12T12:05:08.162Z,9.50
2018-03-12T12:07:34.118Z,6.43
2018-03-12T12:10:00.081Z,6.83
2018-03-12T12:12:26.101Z,7.50
2018-03-12T12:14:52.068Z,9.83
2018-03-12T12:17:18.837Z,8.70
2018-03-12T12:19:45.561Z,8.70
2018-03-12T12:22:11.557Z,9.30
2018-03-12T12:24:37.509Z,6.60
2018-03-12T12:27:03.497Z,8.30
2018-03-12T12:29:30.266Z,8.07
2018-03-12T12:31:56.262Z,6.33
2018-03-12T12:34:22.253Z,8.10
2018-03-12T12:36:48.252Z,6.50
2018-03-12T12:39:15.001Z,6.73
2018-03-12T12:41:41.689Z,6.13
2018-03-12T12:44:07.653Z,9.10
2018-03-12T12:46:33.643Z,5.90
2018-03-12T12:48:59.624Z,6.13
2018-03-12T12:51:25.626Z,6.53
2018-03-12T12:53:51.603Z,7.27
2018-03-12T12:56:17.593Z,7.27
2018-03-12T12:58:43.612Z,5.97
2018-03-12T13:01:10.351Z,5.90
2018-03-12T13:03:36.312Z,7.40
2018-03-12T13:06:03.092Z,6.47
2018-03-12T13:08:29.061Z,6.50
2018-03-12T13:10:55.065Z,6.23
2018-03-12T13:13:21.018Z,8.83
2018-03-12T13:15:47.034Z,6.10
2018-03-12T13:18:13.054Z,6.00
2018-03-12T13:20:39.042Z,6.20
2018-03-12T13:23:05.061Z,5.40
2018-03-12T13:25:31.794Z,5.80
2018-03-12T13:27:57.803Z,6.10
2018-03-12T13:30:24.547Z,6.93
2018-03-12T13:32:51.243Z,5.43
2018-03-12T13:35:17.266Z,7.70
2018-03-12T13:37:43.295Z,5.77
2018-03-12T13:40:09.249Z,6.30
2018-03-12T13:42:35.225Z,6.17
2018-03-12T13:45:01.206Z,5.73
2018-03-12T13:47:27.201Z,5.87
2018-03-12T13:49:53.310Z,5.70
2018-03-12T13:52:19.285Z,6.17
2018-03-12T13:54:45.273Z,5.23
2018-03-12T13:57:11.253Z,6.53
2018-03-12T13:59:37.240Z,8.43
2018-03-12T14:02:03.262Z,6.17
2018-03-12T14:04:29.264Z,5.33
2018-03-12T14:06:55.246Z,7.37
2018-03-12T14:09:21.249Z,6.53
2018-03-12T14:11:47.953Z,7.03
2018-03-12T14:14:13.913Z,6.60
2018-03-12T14:16:39.928Z,6.27
2018-03-12T14:19:05.917Z,6.30
2018-03-12T14:21:32.618Z,8.40
2018-03-12T14:23:58.614Z,4.83
2018-03-12T14:26:24.649Z,5.20
2018-03-12T14:28:50.705Z,5.03
2018-03-12T14:31:16.709Z,6.20
2018-03-12T14:33:43.436Z,6.43
2018-03-12T14:36:09.397Z,7.20
2018-03-12T14:38:36.117Z,13.90
2018-03-12T14:41:02.072Z,13.40
2018-03-12T14:43:28.078Z,8.50
2018-03-12T14:45:54.089Z,5.50
2018-03-12T14:48:20.113Z,4.90
2018-03-12T14:50:46.098Z,7.00
2018-03-12T14:53:12.101Z,7.70
2018-03-12T14:55:38.045Z,5.80
2018-03-12T14:58:04.049Z,5.87
2018-03-12T15:00:30.773Z,8.63
2018-03-12T15:02:56.867Z,6.63
2018-03-12T15:05:22.899Z,6.83
2018-03-12T15:07:48.893Z,6.20
2018-03-12T15:10:15.633Z,6.00
2018-03-12T15:12:41.636Z,4.73
2018-03-12T15:15:07.585Z,5.13
2018-03-12T15:17:33.565Z,4.40
2018-03-12T15:20:00.318Z,6.10
2018-03-12T15:22:27.046Z,4.70
2018-03-12T15:24:53.098Z,3.90
2018-03-12T15:27:19.111Z,3.17
2018-03-12T15:29:45.097Z,9.00
2018-03-12T15:32:11.062Z,3.80
2018-03-12T15:34:37.054Z,4.63
2018-03-12T15:37:03.772Z,4.20
2018-03-12T15:39:29.785Z,14.73
2018-03-12T15:41:55.775Z,5.30
2018-03-12T15:44:21.772Z,12.80
2018-03-12T15:46:47.729Z,4.63
2018-03-12T15:49:13.746Z,4.17
2018-03-12T15:51:39.749Z,3.80
2018-03-12T15:54:05.777Z,4.80
2018-03-12T15:56:31.843Z,6.35
2018-03-12T15:58:57.834Z,4.53
2018-03-12T16:01:24.609Z,4.23
2018-03-12T16:03:50.671Z,3.50
2018-03-12T16:06:16.626Z,4.43
2018-03-12T16:08:42.615Z,4.60
2018-03-12T16:11:08.590Z,7.63
2018-03-12T16:13:34.601Z,4.30
2018-03-12T16:16:00.574Z,4.77
2018-03-12T16:18:27.368Z,4.63
2018-03-12T16:20:54.209Z,9.20
2018-03-12T16:23:20.966Z,5.83
2018-03-12T16:25:46.963Z,8.60
2018-03-12T16:28:13.010Z,5.80
2018-03-12T16:30:39.000Z,5.67
2018-03-12T16:33:04.994Z,4.50
2018-03-12T16:35:30.968Z,4.40
2018-03-12T16:37:57.766Z,4.53
2018-03-12T16:40:23.793Z,6.03
2018-03-12T16:42:49.779Z,8.77
2018-03-12T16:45:16.549Z,5.37
2018-03-12T16:47:42.553Z,5.43
2018-03-12T16:50:08.562Z,5.83
2018-03-12T16:52:34.521Z,9.47
2018-03-12T16:55:00.534Z,9.03
2018-03-12T16:57:26.516Z,5.53
2018-03-12T16:59:52.586Z,6.40
2018-03-12T17:02:18.598Z,6.80
2018-03-12T17:04:45.305Z,6.93
2018-03-12T17:07:11.409Z,7.80
2018-03-12T17:09:37.379Z,9.00
2018-03-12T17:12:03.361Z,8.20
2018-03-12T17:14:30.096Z,9.77
2018-03-12T17:16:56.129Z,9.03
2018-03-12T17:19:22.172Z,45.43
2018-03-12T17:21:48.136Z,11.30
2018-03-12T17:24:14.145Z,11.40
2018-03-12T17:26:40.925Z,14.13
2018-03-12T17:29:06.918Z,12.67
2018-03-12T17:31:32.943Z,13.50
2018-03-12T17:33:58.921Z,14.77
2018-03-12T17:36:25.663Z,14.63
2018-03-12T17:38:52.418Z,15.50
2018-03-12T17:41:19.138Z,14.33
2018-03-12T17:43:45.166Z,11.30
2018-03-12T17:46:11.153Z,15.93
2018-03-12T17:48:37.138Z,13.93
2018-03-12T17:51:03.253Z,15.40
2018-03-12T17:53:29.290Z,18.80
2018-03-12T17:55:55.261Z,15.83
2018-03-12T17:58:21.301Z,14.47
2018-03-12T18:00:54.361Z,15.70
2018-03-12T18:03:20.399Z,14.80
2018-03-12T18:05:47.106Z,15.73
2018-03-12T18:08:13.185Z,15.10
2018-03-12T18:10:39.169Z,17.67
2018-03-12T18:13:05.206Z,17.60
2018-03-12T18:15:31.290Z,18.70
2018-03-12T18:17:57.310Z,14.53
2018-03-12T18:20:23.357Z,14.10
2018-03-12T18:22:49.458Z,11.87
2018-03-12T18:25:15.438Z,12.90
2018-03-12T18:27:41.401Z,10.60
2018-03-12T18:30:07.399Z,8.60
2018-03-12T18:32:41.126Z,11.00
2018-03-12T18:35:07.078Z,8.00
2018-03-12T18:37:33.098Z,7.83
2018-03-12T18:39:59.174Z,7.00
2018-03-12T18:42:25.124Z,5.87
2018-03-12T18:44:51.141Z,6.63
2018-03-12T18:47:17.130Z,7.13
2018-03-12T18:49:43.840Z,5.63
2018-03-12T18:52:09.858Z,7.37
2018-03-12T18:54:36.149Z,7.57
2018-03-12T18:57:02.261Z,9.13
2018-03-12T18:59:28.343Z,7.47
2018-03-12T19:01:54.346Z,9.10
2018-03-12T19:04:20.327Z,8.00
2018-03-12T19:06:46.361Z,9.33
2018-03-12T19:09:13.065Z,11.07
2018-03-12T19:11:39.086Z,8.97
2018-03-12T19:14:05.070Z,8.50
2018-03-12T19:16:31.816Z,9.17
2018-03-12T19:18:58.550Z,9.50
2018-03-12T19:21:24.586Z,9.63
2018-03-12T19:23:50.558Z,9.97
2018-03-12T19:26:16.541Z,11.80
2018-03-12T19:28:42.565Z,9.80
2018-03-12T19:31:08.605Z,10.40
2018-03-12T19:33:34.595Z,10.00
2018-03-12T19:36:01.317Z,10.70
2018-03-12T19:38:27.281Z,8.87
2018-03-12T19:40:54.017Z,10.33
2018-03-12T19:43:19.994Z,8.90
2018-03-12T19:45:45.995Z,11.17
2018-03-12T19:48:12.019Z,8.67
2018-03-12T19:50:38.005Z,8.90
2018-03-12T19:53:04.040Z,8.90
2018-03-12T19:55:30.075Z,9.23
2018-03-12T19:57:56.095Z,9.10
2018-03-12T20:00:22.802Z,9.80
2018-03-12T20:02:48.821Z,10.00
2018-03-12T20:05:14.773Z,10.30
2018-03-12T20:07:40.825Z,9.20
2018-03-12T20:10:09.847Z,8.33
2018-03-12T20:12:37.659Z,9.00
2018-03-12T20:15:04.221Z,8.40
2018-03-12T20:17:30.197Z,10.03
2018-03-12T20:20:03.107Z,8.67
2018-03-12T20:22:29.077Z,8.03
2018-03-12T20:24:55.078Z,8.80
2018-03-12T20:27:21.126Z,9.23
2018-03-12T20:29:47.869Z,8.10
2018-03-12T20:32:20.891Z,8.47
2018-03-12T20:34:47.646Z,9.67
2018-03-12T20:37:14.402Z,13.17
2018-03-12T20:39:41.158Z,7.73
2018-03-12T20:42:07.161Z,7.60
2018-03-12T20:44:33.128Z,6.90
2018-03-12T20:46:59.919Z,10.23
2018-03-12T20:49:25.842Z,8.50
2018-03-12T20:51:51.866Z,8.27
2018-03-12T20:54:17.814Z,8.07
2018-03-12T20:56:43.825Z,7.83
2018-03-12T20:59:10.673Z,6.43
2018-03-12T21:01:36.758Z,7.43
2018-03-12T21:04:02.747Z,8.40
2018-03-12T21:06:29.451Z,6.30
2018-03-12T21:08:55.433Z,6.40
2018-03-12T21:11:22.166Z,7.50
2018-03-12T21:13:48.178Z,6.63
2018-03-12T21:16:14.177Z,6.67
2018-03-12T21:18:40.231Z,6.93
2018-03-12T21:21:06.229Z,5.80
2018-03-12T21:23:32.933Z,5.63
2018-03-12T21:25:58.912Z,6.73
2018-03-12T21:28:25.682Z,5.60
2018-03-12T21:30:52.426Z,6.00
2018-03-12T21:33:18.394Z,6.20
2018-03-12T21:35:44.382Z,5.90
2018-03-12T21:38:10.461Z,5.70
2018-03-12T21:40:36.445Z,6.10
2018-03-12T21:43:02.454Z,7.00
2018-03-12T21:45:28.476Z,5.53
2018-03-12T21:47:54.456Z,5.97
2018-03-12T21:50:20.470Z,6.33
2018-03-12T21:52:46.462Z,6.00
2018-03-12T21:55:13.234Z,6.43
2018-03-12T21:57:39.269Z,6.47
2018-03-12T22:00:05.213Z,7.20
2018-03-12T22:02:31.209Z,8.10
2018-03-12T22:04:57.176Z,6.93
2018-03-12T22:07:23.929Z,6.47
2018-03-12T22:09:49.950Z,6.10
2018-03-12T22:12:16.680Z,5.60
2018-03-12T22:14:42.713Z,5.60
2018-03-12T22:17:08.777Z,5.30
2018-03-12T22:19:34.787Z,6.10
2018-03-12T22:22:00.837Z,5.37
2018-03-12T22:24:28.315Z,7.70
2018-03-12T22:26:54.386Z,5.30
2018-03-12T22:29:21.077Z,5.43
2018-03-12T22:31:47.029Z,6.10
2018-03-12T22:34:13.057Z,6.70
2018-03-12T22:36:39.054Z,4.87
2018-03-12T22:39:05.079Z,4.47
2018-03-12T22:41:31.047Z,4.40
2018-03-12T22:43:57.068Z,3.63
2018-03-12T22:46:23.061Z,4.13
2018-03-12T22:48:49.018Z,3.90
2018-03-12T22:51:15.015Z,4.13
2018-03-12T22:53:41.729Z,4.27
2018-03-12T22:56:07.717Z,4.20
2018-03-12T22:58:33.708Z,3.70
2018-03-12T23:00:59.734Z,3.17
2018-03-12T23:03:25.741Z,3.43
2018-03-12T23:05:52.486Z,5.57
2018-03-12T23:08:18.447Z,5.23
2018-03-12T23:10:45.194Z,3.20
2018-03-12T23:13:11.941Z,3.57
2018-03-12T23:15:37.940Z,2.97
2018-03-12T23:18:03.940Z,2.90
2018-03-12T23:20:29.927Z,4.93
2018-03-12T23:22:55.920Z,2.30
2018-03-12T23:25:21.918Z,5.33
2018-03-12T23:27:48.645Z,3.10
2018-03-12T23:30:14.654Z,2.80
2018-03-12T23:32:40.654Z,3.50
2018-03-12T23:35:06.654Z,5.00
2018-03-12T23:37:32.677Z,2.37
2018-03-12T23:39:58.677Z,3.77
2018-03-12T23:42:24.674Z,2.77
2018-03-12T23:44:50.640Z,2.50
2018-03-12T23:47:16.593Z,2.60
2018-03-12T23:49:42.594Z,3.77
2018-03-12T23:52:08.729Z,2.60
2018-03-12T23:54:38.410Z,2.47
2018-03-12T23:57:04.369Z,3.63
2018-03-12T23:59:30.414Z,4.73
